sensor_id;sensor_type;location;lat;lon;timestamp;P1;durP1;ratioP1;P2;durP2;ratioP2
66585;SDS011;53444;45.822;16.092;2023-11-19T00:01:06;21.47;;;9.43;;
66585;SDS011;53444;45.822;16.092;2023-11-19T00:03:36;17.50;;;8.70;;
66585;SDS011;53444;45.822;16.092;2023-11-19T00:06:08;18.35;;;8.95;;
66585;SDS011;53444;45.822;16.092;2023-11-19T00:08:36;19.48;;;8.93;;
66585;SDS011;53444;45.822;16.092;2023-11-19T00:11:11;18.63;;;9.88;;
66585;SDS011;53444;45.822;16.092;2023-11-19T00:13:40;20.07;;;8.57;;
66585;SDS011;53444;45.822;16.092;2023-11-19T00:16:10;19.48;;;9.00;;
66585;SDS011;53444;45.822;16.092;2023-11-19T00:18:37;20.23;;;8.32;;
66585;SDS011;53444;45.822;16.092;2023-11-19T00:21:04;20.35;;;8.73;;
66585;SDS011;53444;45.822;16.092;2023-11-19T00:23:33;17.17;;;8.32;;
66585;SDS011;53444;45.822;16.092;2023-11-19T00:26:00;18.13;;;7.60;;
66585;SDS011;53444;45.822;16.092;2023-11-19T00:28:27;12.25;;;6.68;;
66585;SDS011;53444;45.822;16.092;2023-11-19T00:30:54;16.02;;;7.35;;
66585;SDS011;53444;45.822;16.092;2023-11-19T00:33:24;12.88;;;7.13;;
66585;SDS011;53444;45.822;16.092;2023-11-19T00:35:54;16.13;;;7.70;;
66585;SDS011;53444;45.822;16.092;2023-11-19T00:38:22;15.80;;;7.03;;
66585;SDS011;53444;45.822;16.092;2023-11-19T00:40:49;14.18;;;7.10;;
66585;SDS011;53444;45.822;16.092;2023-11-19T00:43:16;17.02;;;8.35;;
66585;SDS011;53444;45.822;16.092;2023-11-19T00:45:56;19.90;;;8.88;;
66585;SDS011;53444;45.822;16.092;2023-11-19T00:48:22;17.60;;;8.00;;
66585;SDS011;53444;45.822;16.092;2023-11-19T00:50:53;15.43;;;8.20;;
66585;SDS011;53444;45.822;16.092;2023-11-19T00:53:24;17.63;;;8.23;;
66585;SDS011;53444;45.822;16.092;2023-11-19T00:55:51;17.30;;;8.05;;
66585;SDS011;53444;45.822;16.092;2023-11-19T00:58:18;23.35;;;9.38;;
66585;SDS011;53444;45.822;16.092;2023-11-19T01:00:47;17.60;;;8.43;;
66585;SDS011;53444;45.822;16.092;2023-11-19T01:03:16;15.63;;;8.03;;
66585;SDS011;53444;45.822;16.092;2023-11-19T01:05:44;19.73;;;8.73;;
66585;SDS011;53444;45.822;16.092;2023-11-19T01:08:12;21.98;;;9.18;;
66585;SDS011;53444;45.822;16.092;2023-11-19T01:10:39;17.88;;;8.30;;
66585;SDS011;53444;45.822;16.092;2023-11-19T01:13:06;19.08;;;8.77;;
66585;SDS011;53444;45.822;16.092;2023-11-19T01:15:33;20.80;;;9.40;;
66585;SDS011;53444;45.822;16.092;2023-11-19T01:18:00;19.33;;;8.75;;
66585;SDS011;53444;45.822;16.092;2023-11-19T01:20:30;19.15;;;8.45;;
66585;SDS011;53444;45.822;16.092;2023-11-19T01:23:00;16.42;;;7.68;;
66585;SDS011;53444;45.822;16.092;2023-11-19T01:25:27;19.73;;;8.27;;
66585;SDS011;53444;45.822;16.092;2023-11-19T01:27:56;17.97;;;8.07;;
66585;SDS011;53444;45.822;16.092;2023-11-19T01:30:23;15.60;;;7.80;;
66585;SDS011;53444;45.822;16.092;2023-11-19T01:32:54;18.17;;;8.15;;
66585;SDS011;53444;45.822;16.092;2023-11-19T01:35:21;16.70;;;8.18;;
66585;SDS011;53444;45.822;16.092;2023-11-19T01:37:49;16.88;;;7.75;;
66585;SDS011;53444;45.822;16.092;2023-11-19T01:40:21;19.83;;;8.70;;
66585;SDS011;53444;45.822;16.092;2023-11-19T01:42:47;19.08;;;8.00;;
66585;SDS011;53444;45.822;16.092;2023-11-19T01:45:21;19.00;;;9.43;;
66585;SDS011;53444;45.822;16.092;2023-11-19T01:47:53;20.83;;;9.20;;
66585;SDS011;53444;45.822;16.092;2023-11-19T01:50:20;19.17;;;8.55;;
66585;SDS011;53444;45.822;16.092;2023-11-19T01:52:49;16.93;;;8.70;;
66585;SDS011;53444;45.822;16.092;2023-11-19T01:55:17;16.38;;;7.65;;
66585;SDS011;53444;45.822;16.092;2023-11-19T01:57:52;22.55;;;8.88;;
66585;SDS011;53444;45.822;16.092;2023-11-19T02:00:21;17.83;;;8.30;;
66585;SDS011;53444;45.822;16.092;2023-11-19T02:02:48;19.23;;;8.43;;
66585;SDS011;53444;45.822;16.092;2023-11-19T02:05:19;18.03;;;9.17;;
66585;SDS011;53444;45.822;16.092;2023-11-19T02:07:46;20.95;;;9.23;;
66585;SDS011;53444;45.822;16.092;2023-11-19T02:10:15;19.25;;;9.13;;
66585;SDS011;53444;45.822;16.092;2023-11-19T02:12:44;20.55;;;8.40;;
66585;SDS011;53444;45.822;16.092;2023-11-19T02:15:13;17.02;;;8.90;;
66585;SDS011;53444;45.822;16.092;2023-11-19T02:17:40;21.10;;;8.57;;
66585;SDS011;53444;45.822;16.092;2023-11-19T02:20:08;17.17;;;8.77;;
66585;SDS011;53444;45.822;16.092;2023-11-19T02:22:37;20.90;;;9.05;;
66585;SDS011;53444;45.822;16.092;2023-11-19T02:25:04;19.17;;;9.00;;
66585;SDS011;53444;45.822;16.092;2023-11-19T02:27:49;17.00;;;9.00;;
66585;SDS011;53444;45.822;16.092;2023-11-19T02:30:22;16.67;;;8.83;;
66585;SDS011;53444;45.822;16.092;2023-11-19T02:32:51;20.60;;;9.15;;
66585;SDS011;53444;45.822;16.092;2023-11-19T02:35:18;22.05;;;9.65;;
66585;SDS011;53444;45.822;16.092;2023-11-19T02:37:46;20.50;;;10.55;;
66585;SDS011;53444;45.822;16.092;2023-11-19T02:40:13;19.45;;;9.73;;
66585;SDS011;53444;45.822;16.092;2023-11-19T02:42:40;22.93;;;11.07;;
66585;SDS011;53444;45.822;16.092;2023-11-19T02:45:09;19.42;;;10.80;;
66585;SDS011;53444;45.822;16.092;2023-11-19T02:47:39;25.70;;;11.25;;
66585;SDS011;53444;45.822;16.092;2023-11-19T02:50:07;20.40;;;10.18;;
66585;SDS011;53444;45.822;16.092;2023-11-19T02:52:39;22.63;;;9.65;;
66585;SDS011;53444;45.822;16.092;2023-11-19T02:55:06;19.47;;;9.17;;
66585;SDS011;53444;45.822;16.092;2023-11-19T02:57:37;20.95;;;9.52;;
66585;SDS011;53444;45.822;16.092;2023-11-19T03:00:06;20.58;;;9.98;;
66585;SDS011;53444;45.822;16.092;2023-11-19T03:02:39;23.05;;;11.55;;
66585;SDS011;53444;45.822;16.092;2023-11-19T03:05:10;20.98;;;10.60;;
66585;SDS011;53444;45.822;16.092;2023-11-19T03:07:39;20.97;;;10.53;;
66585;SDS011;53444;45.822;16.092;2023-11-19T03:10:07;22.52;;;11.45;;
66585;SDS011;53444;45.822;16.092;2023-11-19T03:12:37;28.67;;;12.82;;
66585;SDS011;53444;45.822;16.092;2023-11-19T03:15:04;41.13;;;16.08;;
66585;SDS011;53444;45.822;16.092;2023-11-19T03:17:32;39.00;;;17.00;;
66585;SDS011;53444;45.822;16.092;2023-11-19T03:20:00;34.33;;;15.90;;
66585;SDS011;53444;45.822;16.092;2023-11-19T03:22:27;34.50;;;13.88;;
66585;SDS011;53444;45.822;16.092;2023-11-19T03:24:53;30.20;;;13.75;;
66585;SDS011;53444;45.822;16.092;2023-11-19T03:27:23;29.70;;;13.63;;
66585;SDS011;53444;45.822;16.092;2023-11-19T03:29:49;29.50;;;13.43;;
66585;SDS011;53444;45.822;16.092;2023-11-19T03:32:16;36.03;;;14.17;;
66585;SDS011;53444;45.822;16.092;2023-11-19T03:34:42;33.33;;;14.10;;
66585;SDS011;53444;45.822;16.092;2023-11-19T03:37:11;31.50;;;13.82;;
66585;SDS011;53444;45.822;16.092;2023-11-19T03:39:41;35.00;;;14.48;;
66585;SDS011;53444;45.822;16.092;2023-11-19T03:42:08;30.15;;;13.88;;
66585;SDS011;53444;45.822;16.092;2023-11-19T03:44:35;27.30;;;13.17;;
66585;SDS011;53444;45.822;16.092;2023-11-19T03:47:01;32.33;;;13.75;;
66585;SDS011;53444;45.822;16.092;2023-11-19T03:49:28;27.52;;;12.23;;
66585;SDS011;53444;45.822;16.092;2023-11-19T03:51:55;28.38;;;13.32;;
66585;SDS011;53444;45.822;16.092;2023-11-19T03:54:23;29.85;;;13.57;;
66585;SDS011;53444;45.822;16.092;2023-11-19T03:56:50;31.43;;;13.73;;
66585;SDS011;53444;45.822;16.092;2023-11-19T03:59:16;28.42;;;12.88;;
66585;SDS011;53444;45.822;16.092;2023-11-19T04:01:45;30.70;;;13.68;;
66585;SDS011;53444;45.822;16.092;2023-11-19T04:04:12;29.63;;;13.38;;
66585;SDS011;53444;45.822;16.092;2023-11-19T04:06:39;29.48;;;14.18;;
66585;SDS011;53444;45.822;16.092;2023-11-19T04:09:06;35.37;;;13.73;;
66585;SDS011;53444;45.822;16.092;2023-11-19T04:11:35;32.63;;;14.13;;
66585;SDS011;53444;45.822;16.092;2023-11-19T04:14:02;35.78;;;14.68;;
66585;SDS011;53444;45.822;16.092;2023-11-19T04:16:28;33.33;;;15.05;;
66585;SDS011;53444;45.822;16.092;2023-11-19T04:18:55;27.08;;;12.52;;
66585;SDS011;53444;45.822;16.092;2023-11-19T04:21:23;32.13;;;14.10;;
66585;SDS011;53444;45.822;16.092;2023-11-19T04:23:55;27.70;;;12.75;;
66585;SDS011;53444;45.822;16.092;2023-11-19T04:26:22;26.25;;;11.50;;
66585;SDS011;53444;45.822;16.092;2023-11-19T04:28:50;28.40;;;12.35;;
66585;SDS011;53444;45.822;16.092;2023-11-19T04:31:17;30.48;;;12.68;;
66585;SDS011;53444;45.822;16.092;2023-11-19T04:33:44;31.77;;;13.13;;
66585;SDS011;53444;45.822;16.092;2023-11-19T04:36:10;37.90;;;15.65;;
66585;SDS011;53444;45.822;16.092;2023-11-19T04:38:39;34.28;;;17.25;;
66585;SDS011;53444;45.822;16.092;2023-11-19T04:41:06;40.70;;;18.63;;
66585;SDS011;53444;45.822;16.092;2023-11-19T04:43:33;46.20;;;21.08;;
66585;SDS011;53444;45.822;16.092;2023-11-19T04:46:01;44.27;;;21.40;;
66585;SDS011;53444;45.822;16.092;2023-11-19T04:48:30;43.47;;;22.25;;
66585;SDS011;53444;45.822;16.092;2023-11-19T04:50:56;47.75;;;23.17;;
66585;SDS011;53444;45.822;16.092;2023-11-19T04:53:23;48.42;;;22.75;;
66585;SDS011;53444;45.822;16.092;2023-11-19T04:55:50;51.15;;;24.42;;
66585;SDS011;53444;45.822;16.092;2023-11-19T04:58:16;44.00;;;22.87;;
66585;SDS011;53444;45.822;16.092;2023-11-19T05:00:44;47.42;;;22.65;;
66585;SDS011;53444;45.822;16.092;2023-11-19T05:03:12;56.85;;;24.25;;
66585;SDS011;53444;45.822;16.092;2023-11-19T05:05:38;54.00;;;24.55;;
66585;SDS011;53444;45.822;16.092;2023-11-19T05:08:05;54.58;;;24.73;;
66585;SDS011;53444;45.822;16.092;2023-11-19T05:10:33;49.57;;;24.10;;
66585;SDS011;53444;45.822;16.092;2023-11-19T05:13:01;49.70;;;24.33;;
66585;SDS011;53444;45.822;16.092;2023-11-19T05:15:28;52.83;;;25.42;;
66585;SDS011;53444;45.822;16.092;2023-11-19T05:17:55;46.53;;;23.90;;
66585;SDS011;53444;45.822;16.092;2023-11-19T05:20:23;49.75;;;24.05;;
66585;SDS011;53444;45.822;16.092;2023-11-19T05:22:50;47.43;;;23.53;;
66585;SDS011;53444;45.822;16.092;2023-11-19T05:25:18;47.47;;;24.35;;
66585;SDS011;53444;45.822;16.092;2023-11-19T05:27:45;50.15;;;24.13;;
66585;SDS011;53444;45.822;16.092;2023-11-19T05:30:12;48.88;;;23.77;;
66585;SDS011;53444;45.822;16.092;2023-11-19T05:32:39;45.63;;;22.35;;
66585;SDS011;53444;45.822;16.092;2023-11-19T05:35:07;44.07;;;21.10;;
66585;SDS011;53444;45.822;16.092;2023-11-19T05:37:36;47.05;;;20.35;;
66585;SDS011;53444;45.822;16.092;2023-11-19T05:40:03;40.33;;;19.77;;
66585;SDS011;53444;45.822;16.092;2023-11-19T05:42:37;37.53;;;19.90;;
66585;SDS011;53444;45.822;16.092;2023-11-19T05:45:04;40.13;;;20.27;;
66585;SDS011;53444;45.822;16.092;2023-11-19T05:47:32;41.03;;;20.67;;
66585;SDS011;53444;45.822;16.092;2023-11-19T05:49:59;48.92;;;22.20;;
66585;SDS011;53444;45.822;16.092;2023-11-19T05:52:26;47.50;;;21.45;;
66585;SDS011;53444;45.822;16.092;2023-11-19T05:54:56;43.03;;;21.20;;
66585;SDS011;53444;45.822;16.092;2023-11-19T05:57:23;43.67;;;21.70;;
66585;SDS011;53444;45.822;16.092;2023-11-19T05:59:50;41.90;;;21.03;;
66585;SDS011;53444;45.822;16.092;2023-11-19T06:02:19;44.15;;;21.40;;
66585;SDS011;53444;45.822;16.092;2023-11-19T06:04:45;48.85;;;21.55;;
66585;SDS011;53444;45.822;16.092;2023-11-19T06:07:30;42.97;;;21.88;;
66585;SDS011;53444;45.822;16.092;2023-11-19T06:09:59;44.28;;;21.80;;
66585;SDS011;53444;45.822;16.092;2023-11-19T06:12:26;48.60;;;21.73;;
66585;SDS011;53444;45.822;16.092;2023-11-19T06:14:56;44.15;;;21.00;;
66585;SDS011;53444;45.822;16.092;2023-11-19T06:17:23;38.95;;;18.98;;
66585;SDS011;53444;45.822;16.092;2023-11-19T06:19:49;42.50;;;18.77;;
66585;SDS011;53444;45.822;16.092;2023-11-19T06:22:17;41.50;;;20.58;;
66585;SDS011;53444;45.822;16.092;2023-11-19T06:24:44;39.93;;;18.97;;
66585;SDS011;53444;45.822;16.092;2023-11-19T06:27:12;34.85;;;17.83;;
66585;SDS011;53444;45.822;16.092;2023-11-19T06:29:39;39.08;;;18.83;;
66585;SDS011;53444;45.822;16.092;2023-11-19T06:32:06;37.80;;;19.02;;
66585;SDS011;53444;45.822;16.092;2023-11-19T06:34:34;34.03;;;18.30;;
66585;SDS011;53444;45.822;16.092;2023-11-19T06:37:00;42.43;;;19.63;;
66585;SDS011;53444;45.822;16.092;2023-11-19T06:39:28;41.35;;;18.98;;
66585;SDS011;53444;45.822;16.092;2023-11-19T06:41:55;33.33;;;17.40;;
66585;SDS011;53444;45.822;16.092;2023-11-19T06:44:23;38.28;;;18.30;;
66585;SDS011;53444;45.822;16.092;2023-11-19T06:46:50;35.63;;;18.35;;
66585;SDS011;53444;45.822;16.092;2023-11-19T06:49:17;34.73;;;18.67;;
66585;SDS011;53444;45.822;16.092;2023-11-19T06:51:44;42.78;;;17.58;;
66585;SDS011;53444;45.822;16.092;2023-11-19T06:54:11;34.50;;;17.42;;
66585;SDS011;53444;45.822;16.092;2023-11-19T06:56:38;37.72;;;16.35;;
66585;SDS011;53444;45.822;16.092;2023-11-19T06:59:04;33.80;;;17.80;;
66585;SDS011;53444;45.822;16.092;2023-11-19T07:01:35;29.67;;;16.03;;
66585;SDS011;53444;45.822;16.092;2023-11-19T07:04:02;29.92;;;15.55;;
66585;SDS011;53444;45.822;16.092;2023-11-19T07:06:34;33.60;;;15.82;;
66585;SDS011;53444;45.822;16.092;2023-11-19T07:09:01;28.80;;;16.60;;
66585;SDS011;53444;45.822;16.092;2023-11-19T07:11:34;34.75;;;17.63;;
66585;SDS011;53444;45.822;16.092;2023-11-19T07:14:01;38.87;;;19.00;;
66585;SDS011;53444;45.822;16.092;2023-11-19T07:16:29;38.17;;;17.92;;
66585;SDS011;53444;45.822;16.092;2023-11-19T07:18:57;29.75;;;16.67;;
66585;SDS011;53444;45.822;16.092;2023-11-19T07:21:25;33.40;;;16.65;;
66585;SDS011;53444;45.822;16.092;2023-11-19T07:23:53;32.88;;;16.80;;
66585;SDS011;53444;45.822;16.092;2023-11-19T07:26:20;30.23;;;15.00;;
66585;SDS011;53444;45.822;16.092;2023-11-19T07:28:46;28.63;;;14.13;;
66585;SDS011;53444;45.822;16.092;2023-11-19T07:31:13;26.23;;;13.93;;
66585;SDS011;53444;45.822;16.092;2023-11-19T07:33:44;26.85;;;13.52;;
66585;SDS011;53444;45.822;16.092;2023-11-19T07:36:12;27.73;;;13.90;;
66585;SDS011;53444;45.822;16.092;2023-11-19T07:38:40;25.33;;;13.90;;
66585;SDS011;53444;45.822;16.092;2023-11-19T07:41:09;29.38;;;13.95;;
66585;SDS011;53444;45.822;16.092;2023-11-19T07:43:38;28.98;;;14.68;;
66585;SDS011;53444;45.822;16.092;2023-11-19T07:46:06;28.58;;;13.82;;
66585;SDS011;53444;45.822;16.092;2023-11-19T07:48:38;29.08;;;14.65;;
66585;SDS011;53444;45.822;16.092;2023-11-19T07:51:05;34.60;;;16.50;;
66585;SDS011;53444;45.822;16.092;2023-11-19T07:53:33;31.25;;;15.07;;
66585;SDS011;53444;45.822;16.092;2023-11-19T07:55:59;31.23;;;16.23;;
66585;SDS011;53444;45.822;16.092;2023-11-19T07:58:26;34.38;;;16.88;;
66585;SDS011;53444;45.822;16.092;2023-11-19T08:00:53;35.70;;;17.00;;
66585;SDS011;53444;45.822;16.092;2023-11-19T08:03:20;36.50;;;17.80;;
66585;SDS011;53444;45.822;16.092;2023-11-19T08:05:48;36.30;;;18.27;;
66585;SDS011;53444;45.822;16.092;2023-11-19T08:08:15;41.05;;;18.50;;
66585;SDS011;53444;45.822;16.092;2023-11-19T08:10:43;40.83;;;19.20;;
66585;SDS011;53444;45.822;16.092;2023-11-19T08:13:10;39.78;;;19.10;;
66585;SDS011;53444;45.822;16.092;2023-11-19T08:15:37;46.40;;;20.73;;
66585;SDS011;53444;45.822;16.092;2023-11-19T08:18:03;37.40;;;19.70;;
66585;SDS011;53444;45.822;16.092;2023-11-19T08:20:30;42.75;;;20.33;;
66585;SDS011;53444;45.822;16.092;2023-11-19T08:22:57;43.80;;;21.48;;
66585;SDS011;53444;45.822;16.092;2023-11-19T08:25:23;39.45;;;21.70;;
66585;SDS011;53444;45.822;16.092;2023-11-19T08:27:52;44.47;;;22.23;;
66585;SDS011;53444;45.822;16.092;2023-11-19T08:30:18;41.55;;;20.38;;
66585;SDS011;53444;45.822;16.092;2023-11-19T08:32:45;39.25;;;18.83;;
66585;SDS011;53444;45.822;16.092;2023-11-19T08:35:12;37.83;;;19.63;;
66585;SDS011;53444;45.822;16.092;2023-11-19T08:37:39;38.22;;;19.00;;
66585;SDS011;53444;45.822;16.092;2023-11-19T08:40:06;33.27;;;17.57;;
66585;SDS011;53444;45.822;16.092;2023-11-19T08:42:34;33.55;;;15.93;;
66585;SDS011;53444;45.822;16.092;2023-11-19T08:45:03;37.05;;;17.00;;
66585;SDS011;53444;45.822;16.092;2023-11-19T08:47:30;44.20;;;20.30;;
66585;SDS011;53444;45.822;16.092;2023-11-19T08:49:57;40.30;;;20.50;;
66585;SDS011;53444;45.822;16.092;2023-11-19T08:52:23;41.30;;;20.10;;
66585;SDS011;53444;45.822;16.092;2023-11-19T08:54:50;33.72;;;17.67;;
66585;SDS011;53444;45.822;16.092;2023-11-19T08:57:17;38.20;;;18.80;;
66585;SDS011;53444;45.822;16.092;2023-11-19T08:59:44;35.88;;;18.50;;
66585;SDS011;53444;45.822;16.092;2023-11-19T09:02:13;36.88;;;18.23;;
66585;SDS011;53444;45.822;16.092;2023-11-19T09:04:40;36.03;;;18.27;;
66585;SDS011;53444;45.822;16.092;2023-11-19T09:07:07;32.67;;;18.13;;
66585;SDS011;53444;45.822;16.092;2023-11-19T09:09:34;39.20;;;18.88;;
66585;SDS011;53444;45.822;16.092;2023-11-19T09:12:01;35.63;;;19.00;;
66585;SDS011;53444;45.822;16.092;2023-11-19T09:14:28;35.10;;;18.15;;
66585;SDS011;53444;45.822;16.092;2023-11-19T09:16:55;40.27;;;18.87;;
66585;SDS011;53444;45.822;16.092;2023-11-19T09:19:24;32.80;;;17.25;;
66585;SDS011;53444;45.822;16.092;2023-11-19T09:21:51;37.65;;;18.90;;
66585;SDS011;53444;45.822;16.092;2023-11-19T09:24:18;38.00;;;18.90;;
66585;SDS011;53444;45.822;16.092;2023-11-19T09:26:44;44.60;;;22.98;;
66585;SDS011;53444;45.822;16.092;2023-11-19T09:29:11;31.60;;;16.20;;
66585;SDS011;53444;45.822;16.092;2023-11-19T09:31:39;25.52;;;12.50;;
66585;SDS011;53444;45.822;16.092;2023-11-19T09:34:06;27.92;;;14.48;;
66585;SDS011;53444;45.822;16.092;2023-11-19T09:36:34;15.70;;;8.45;;
66585;SDS011;53444;45.822;16.092;2023-11-19T09:39:01;14.27;;;7.05;;
66585;SDS011;53444;45.822;16.092;2023-11-19T09:41:29;14.10;;;7.83;;
66585;SDS011;53444;45.822;16.092;2023-11-19T09:43:56;14.32;;;8.38;;
66585;SDS011;53444;45.822;16.092;2023-11-19T09:46:23;15.32;;;7.95;;
66585;SDS011;53444;45.822;16.092;2023-11-19T09:48:52;18.50;;;9.88;;
66585;SDS011;53444;45.822;16.092;2023-11-19T09:51:20;17.27;;;8.48;;
66585;SDS011;53444;45.822;16.092;2023-11-19T09:53:48;19.83;;;9.30;;
66585;SDS011;53444;45.822;16.092;2023-11-19T09:56:15;22.23;;;10.27;;
66585;SDS011;53444;45.822;16.092;2023-11-19T09:58:42;20.75;;;10.23;;
66585;SDS011;53444;45.822;16.092;2023-11-19T10:01:09;22.90;;;10.90;;
66585;SDS011;53444;45.822;16.092;2023-11-19T10:03:37;22.38;;;11.60;;
66585;SDS011;53444;45.822;16.092;2023-11-19T10:06:06;24.43;;;11.43;;
66585;SDS011;53444;45.822;16.092;2023-11-19T10:08:33;24.40;;;13.20;;
66585;SDS011;53444;45.822;16.092;2023-11-19T10:11:02;21.38;;;10.93;;
66585;SDS011;53444;45.822;16.092;2023-11-19T10:13:28;19.40;;;9.48;;
66585;SDS011;53444;45.822;16.092;2023-11-19T10:15:55;21.08;;;10.60;;
66585;SDS011;53444;45.822;16.092;2023-11-19T10:18:24;19.50;;;10.77;;
66585;SDS011;53444;45.822;16.092;2023-11-19T10:20:51;19.67;;;11.55;;
66585;SDS011;53444;45.822;16.092;2023-11-19T10:23:20;17.23;;;9.77;;
66585;SDS011;53444;45.822;16.092;2023-11-19T10:25:46;18.25;;;10.57;;
66585;SDS011;53444;45.822;16.092;2023-11-19T10:28:16;21.80;;;11.02;;
66585;SDS011;53444;45.822;16.092;2023-11-19T10:30:42;24.67;;;11.73;;
66585;SDS011;53444;45.822;16.092;2023-11-19T10:33:09;24.17;;;11.95;;
66585;SDS011;53444;45.822;16.092;2023-11-19T10:35:50;19.17;;;10.52;;
66585;SDS011;53444;45.822;16.092;2023-11-19T10:38:18;23.70;;;10.48;;
66585;SDS011;53444;45.822;16.092;2023-11-19T10:40:45;20.88;;;10.27;;
66585;SDS011;53444;45.822;16.092;2023-11-19T10:43:12;19.47;;;9.83;;
66585;SDS011;53444;45.822;16.092;2023-11-19T10:45:40;21.17;;;10.68;;
66585;SDS011;53444;45.822;16.092;2023-11-19T10:48:07;20.55;;;10.43;;
66585;SDS011;53444;45.822;16.092;2023-11-19T10:50:35;22.98;;;10.90;;
66585;SDS011;53444;45.822;16.092;2023-11-19T10:53:02;26.45;;;13.95;;
66585;SDS011;53444;45.822;16.092;2023-11-19T10:55:30;27.27;;;14.80;;
66585;SDS011;53444;45.822;16.092;2023-11-19T10:57:59;19.38;;;10.70;;
66585;SDS011;53444;45.822;16.092;2023-11-19T11:00:28;20.38;;;9.82;;
66585;SDS011;53444;45.822;16.092;2023-11-19T11:03:01;19.23;;;9.90;;
66585;SDS011;53444;45.822;16.092;2023-11-19T11:05:29;18.73;;;9.40;;
66585;SDS011;53444;45.822;16.092;2023-11-19T11:08:00;19.33;;;9.97;;
66585;SDS011;53444;45.822;16.092;2023-11-19T11:10:27;19.13;;;10.13;;
66585;SDS011;53444;45.822;16.092;2023-11-19T11:12:55;20.52;;;10.75;;
66585;SDS011;53444;45.822;16.092;2023-11-19T11:15:26;17.15;;;9.52;;
66585;SDS011;53444;45.822;16.092;2023-11-19T11:17:55;17.38;;;10.25;;
66585;SDS011;53444;45.822;16.092;2023-11-19T11:20:28;18.57;;;10.67;;
66585;SDS011;53444;45.822;16.092;2023-11-19T11:23:01;17.63;;;10.10;;
66585;SDS011;53444;45.822;16.092;2023-11-19T11:25:43;18.88;;;9.88;;
66585;SDS011;53444;45.822;16.092;2023-11-19T11:28:18;20.85;;;11.45;;
66585;SDS011;53444;45.822;16.092;2023-11-19T11:30:59;23.17;;;12.48;;
66585;SDS011;53444;45.822;16.092;2023-11-19T11:33:38;22.67;;;12.43;;
66585;SDS011;53444;45.822;16.092;2023-11-19T11:36:16;23.73;;;12.00;;
66585;SDS011;53444;45.822;16.092;2023-11-19T11:38:47;21.80;;;11.52;;
66585;SDS011;53444;45.822;16.092;2023-11-19T11:41:15;25.00;;;13.50;;
66585;SDS011;53444;45.822;16.092;2023-11-19T11:43:44;16.95;;;9.95;;
66585;SDS011;53444;45.822;16.092;2023-11-19T11:49:11;18.13;;;9.65;;
66585;SDS011;53444;45.822;16.092;2023-11-19T11:51:59;17.80;;;10.02;;
66585;SDS011;53444;45.822;16.092;2023-11-19T11:54:32;18.52;;;9.98;;
66585;SDS011;53444;45.822;16.092;2023-11-19T11:57:03;17.55;;;9.50;;
66585;SDS011;53444;45.822;16.092;2023-11-19T11:59:45;17.00;;;8.73;;
66585;SDS011;53444;45.822;16.092;2023-11-19T12:02:13;19.05;;;9.38;;
66585;SDS011;53444;45.822;16.092;2023-11-19T12:04:42;14.40;;;8.85;;
66585;SDS011;53444;45.822;16.092;2023-11-19T12:07:13;15.00;;;8.25;;
66585;SDS011;53444;45.822;16.092;2023-11-19T12:09:41;15.80;;;8.27;;
66585;SDS011;53444;45.822;16.092;2023-11-19T12:12:18;18.93;;;9.27;;
66585;SDS011;53444;45.822;16.092;2023-11-19T12:14:59;19.70;;;8.85;;
66585;SDS011;53444;45.822;16.092;2023-11-19T12:17:40;17.77;;;9.82;;
66585;SDS011;53444;45.822;16.092;2023-11-19T12:20:14;20.90;;;8.73;;
66585;SDS011;53444;45.822;16.092;2023-11-19T12:22:43;18.52;;;10.05;;
66585;SDS011;53444;45.822;16.092;2023-11-19T12:25:11;16.33;;;8.27;;
66585;SDS011;53444;45.822;16.092;2023-11-19T12:27:39;16.23;;;8.95;;
66585;SDS011;53444;45.822;16.092;2023-11-19T12:30:07;14.73;;;8.35;;
66585;SDS011;53444;45.822;16.092;2023-11-19T12:32:38;20.75;;;9.38;;
66585;SDS011;53444;45.822;16.092;2023-11-19T12:35:06;32.88;;;13.30;;
66585;SDS011;53444;45.822;16.092;2023-11-19T12:37:39;16.87;;;8.80;;
66585;SDS011;53444;45.822;16.092;2023-11-19T12:40:12;16.92;;;10.57;;
66585;SDS011;53444;45.822;16.092;2023-11-19T12:42:43;18.33;;;9.68;;
66585;SDS011;53444;45.822;16.092;2023-11-19T12:45:10;20.00;;;10.88;;
66585;SDS011;53444;45.822;16.092;2023-11-19T12:47:38;17.45;;;10.13;;
66585;SDS011;53444;45.822;16.092;2023-11-19T12:50:06;16.85;;;9.65;;
66585;SDS011;53444;45.822;16.092;2023-11-19T12:52:34;18.38;;;10.10;;
66585;SDS011;53444;45.822;16.092;2023-11-19T12:55:02;35.08;;;15.43;;
66585;SDS011;53444;45.822;16.092;2023-11-19T12:57:37;22.30;;;12.90;;
66585;SDS011;53444;45.822;16.092;2023-11-19T13:00:06;17.55;;;10.13;;
66585;SDS011;53444;45.822;16.092;2023-11-19T13:02:45;17.35;;;9.82;;
66585;SDS011;53444;45.822;16.092;2023-11-19T13:05:23;16.50;;;9.93;;
66585;SDS011;53444;45.822;16.092;2023-11-19T13:07:59;16.42;;;10.30;;
66585;SDS011;53444;45.822;16.092;2023-11-19T13:10:29;19.13;;;10.27;;
66585;SDS011;53444;45.822;16.092;2023-11-19T13:13:00;18.35;;;10.48;;
66585;SDS011;53444;45.822;16.092;2023-11-19T13:15:29;18.08;;;10.13;;
66585;SDS011;53444;45.822;16.092;2023-11-19T13:17:56;15.95;;;9.90;;
66585;SDS011;53444;45.822;16.092;2023-11-19T13:20:22;17.45;;;9.25;;
66585;SDS011;53444;45.822;16.092;2023-11-19T13:22:56;15.43;;;9.02;;
66585;SDS011;53444;45.822;16.092;2023-11-19T13:25:23;16.02;;;8.93;;
66585;SDS011;53444;45.822;16.092;2023-11-19T13:27:52;17.02;;;9.98;;
66585;SDS011;53444;45.822;16.092;2023-11-19T13:30:19;15.25;;;9.90;;
66585;SDS011;53444;45.822;16.092;2023-11-19T13:32:47;15.13;;;9.35;;
66585;SDS011;53444;45.822;16.092;2023-11-19T13:35:14;13.27;;;8.27;;
66585;SDS011;53444;45.822;16.092;2023-11-19T13:37:42;14.38;;;8.30;;
66585;SDS011;53444;45.822;16.092;2023-11-19T13:40:10;14.30;;;8.80;;
66585;SDS011;53444;45.822;16.092;2023-11-19T13:42:39;16.77;;;8.68;;
66585;SDS011;53444;45.822;16.092;2023-11-19T13:45:09;15.15;;;8.98;;
66585;SDS011;53444;45.822;16.092;2023-11-19T13:47:38;16.08;;;9.30;;
66585;SDS011;53444;45.822;16.092;2023-11-19T13:50:07;29.52;;;14.60;;
66585;SDS011;53444;45.822;16.092;2023-11-19T13:52:35;19.38;;;10.85;;
66585;SDS011;53444;45.822;16.092;2023-11-19T13:55:07;24.92;;;11.48;;
66585;SDS011;53444;45.822;16.092;2023-11-19T13:57:35;17.58;;;9.63;;
66585;SDS011;53444;45.822;16.092;2023-11-19T14:00:03;18.70;;;10.48;;
66585;SDS011;53444;45.822;16.092;2023-11-19T14:02:34;19.25;;;10.23;;
66585;SDS011;53444;45.822;16.092;2023-11-19T14:05:01;14.38;;;9.38;;
66585;SDS011;53444;45.822;16.092;2023-11-19T14:07:28;18.48;;;10.45;;
66585;SDS011;53444;45.822;16.092;2023-11-19T14:09:55;16.35;;;10.15;;
66585;SDS011;53444;45.822;16.092;2023-11-19T14:12:22;18.25;;;10.88;;
66585;SDS011;53444;45.822;16.092;2023-11-19T14:14:49;20.10;;;11.05;;
66585;SDS011;53444;45.822;16.092;2023-11-19T14:17:16;15.50;;;9.95;;
66585;SDS011;53444;45.822;16.092;2023-11-19T14:19:45;16.52;;;9.27;;
66585;SDS011;53444;45.822;16.092;2023-11-19T14:22:12;16.42;;;10.25;;
66585;SDS011;53444;45.822;16.092;2023-11-19T14:24:39;16.33;;;10.50;;